createdAt,value
2023-03-24T00:01:07.616Z,26.98
2023-03-24T00:06:13.740Z,25.50
2023-03-24T00:11:20.992Z,30.80
2023-03-24T00:16:24.861Z,32.47
2023-03-24T00:21:28.171Z,26.20
2023-03-24T00:26:32.503Z,25.67
2023-03-24T00:31:40.371Z,24.87
2023-03-24T00:36:43.417Z,26.52
2023-03-24T00:41:48.727Z,23.00
2023-03-24T00:46:55.775Z,23.80
2023-03-24T00:51:59.064Z,24.77
2023-03-24T00:57:03.895Z,23.27
2023-03-24T01:02:06.836Z,22.55
2023-03-24T01:07:10.958Z,20.38
2023-03-24T01:12:19.070Z,24.85
2023-03-24T01:17:22.818Z,16.98
2023-03-24T01:22:31.135Z,17.85
2023-03-24T01:27:35.449Z,17.97
2023-03-24T01:32:38.564Z,16.60
2023-03-24T01:37:41.740Z,15.45
2023-03-24T01:42:45.959Z,16.63
2023-03-24T01:47:49.167Z,15.98
2023-03-24T01:52:52.073Z,17.80
2023-03-24T01:57:58.299Z,13.73
2023-03-24T02:03:10.359Z,16.08
2023-03-24T02:08:24.669Z,12.87
2023-03-24T02:13:29.067Z,15.43
2023-03-24T02:18:44.807Z,21.35
2023-03-24T02:24:12.152Z,7.90
2023-03-24T02:29:48.494Z,11.43
2023-03-24T02:35:21.774Z,16.10
2023-03-24T02:40:31.786Z,15.63
2023-03-24T02:45:38.740Z,20.20
2023-03-24T02:50:44.297Z,17.08
2023-03-24T02:55:54.136Z,15.03
2023-03-24T03:00:59.643Z,22.87
2023-03-24T03:06:29.758Z,20.35
2023-03-24T03:11:34.040Z,17.67
2023-03-24T03:16:40.632Z,15.40
2023-03-24T03:21:45.551Z,18.55
2023-03-24T03:26:50.011Z,11.68
2023-03-24T03:32:00.999Z,19.80
2023-03-24T03:37:07.679Z,13.25
2023-03-24T03:42:11.962Z,18.40
2023-03-24T03:47:16.213Z,14.32
2023-03-24T03:52:22.223Z,15.77
2023-03-24T03:57:28.008Z,19.48
2023-03-24T04:03:05.359Z,15.57
2023-03-24T04:08:15.318Z,17.63
2023-03-24T04:13:37.540Z,22.20
2023-03-24T04:19:13.557Z,15.43
2023-03-24T04:24:26.889Z,15.67
2023-03-24T04:29:37.015Z,17.93
2023-03-24T04:34:42.259Z,13.70
2023-03-24T04:40:23.672Z,14.10
2023-03-24T04:45:27.900Z,18.38
2023-03-24T04:50:56.871Z,20.13
2023-03-24T04:56:27.353Z,15.75
2023-03-24T05:01:49.949Z,20.07
2023-03-24T05:07:15.486Z,20.80
2023-03-24T05:12:19.584Z,24.15
2023-03-24T05:17:42.902Z,33.63
2023-03-24T05:22:46.664Z,26.83
2023-03-24T05:27:50.249Z,28.45
2023-03-24T05:33:01.193Z,29.15
2023-03-24T05:38:04.618Z,32.57
2023-03-24T05:43:09.954Z,29.48
2023-03-24T05:48:18.203Z,32.40
2023-03-24T05:53:43.166Z,29.10
2023-03-24T05:58:51.462Z,32.43
2023-03-24T06:03:56.535Z,42.30
2023-03-24T06:09:02.461Z,30.90
2023-03-24T06:14:05.761Z,44.37
2023-03-24T06:19:22.593Z,43.75
2023-03-24T06:24:45.529Z,40.90
2023-03-24T06:29:48.697Z,40.05
2023-03-24T06:34:53.308Z,36.15
2023-03-24T06:40:22.343Z,42.77
2023-03-24T06:45:31.241Z,28.30
2023-03-24T06:50:35.895Z,34.50
2023-03-24T06:55:44.664Z,43.13
2023-03-24T07:00:50.402Z,33.35
2023-03-24T07:06:07.526Z,39.53
2023-03-24T07:11:10.613Z,39.33
2023-03-24T07:16:17.697Z,34.57
2023-03-24T07:21:24.034Z,33.35
2023-03-24T07:26:27.461Z,40.33
2023-03-24T07:31:38.781Z,35.30
2023-03-24T07:36:46.728Z,34.13
2023-03-24T07:41:52.722Z,36.30
2023-03-24T07:47:07.191Z,44.78
2023-03-24T07:52:11.550Z,37.85
2023-03-24T07:57:19.288Z,34.30
2023-03-24T08:02:22.590Z,49.23
2023-03-24T08:07:37.725Z,33.07
2023-03-24T08:12:40.690Z,38.45
2023-03-24T08:17:43.499Z,41.08
2023-03-24T08:22:49.724Z,39.83
2023-03-24T08:27:53.175Z,36.30
2023-03-24T08:32:57.676Z,42.00
2023-03-24T08:38:06.665Z,36.90
2023-03-24T08:43:15.088Z,36.00
2023-03-24T08:48:18.370Z,43.83
2023-03-24T08:53:22.639Z,30.73
2023-03-24T08:58:25.504Z,35.70
2023-03-24T09:03:28.736Z,36.00
2023-03-24T09:08:33.215Z,27.48
2023-03-24T09:13:36.062Z,34.40
2023-03-24T09:18:39.105Z,37.90
2023-03-24T09:23:43.360Z,34.40
2023-03-24T09:28:46.345Z,27.33
2023-03-24T09:33:49.248Z,29.42
2023-03-24T09:38:53.484Z,29.50
2023-03-24T09:43:59.788Z,21.73
2023-03-24T09:49:02.774Z,33.22
2023-03-24T09:54:13.693Z,39.78
2023-03-24T09:59:19.885Z,26.92
2023-03-24T10:04:26.247Z,33.63
2023-03-24T10:09:32.542Z,27.55
2023-03-24T10:14:48.771Z,27.33
2023-03-24T10:20:00.019Z,28.67
2023-03-24T10:25:09.236Z,28.05
2023-03-24T10:30:17.411Z,32.45
2023-03-24T10:35:22.906Z,24.40
2023-03-24T10:40:33.211Z,19.20
2023-03-24T10:45:39.516Z,28.75
2023-03-24T10:50:45.128Z,26.85
2023-03-24T10:55:50.743Z,28.03
2023-03-24T11:00:54.070Z,28.20
2023-03-24T11:06:01.340Z,28.07
2023-03-24T11:11:16.583Z,27.25
2023-03-24T11:16:19.812Z,32.50
2023-03-24T11:21:23.006Z,25.33
2023-03-24T11:26:31.701Z,30.13
2023-03-24T11:31:38.310Z,24.83
2023-03-24T11:36:46.864Z,25.15
2023-03-24T11:42:02.068Z,22.98
2023-03-24T11:47:09.506Z,24.92
2023-03-24T11:52:19.737Z,25.30
2023-03-24T11:57:35.071Z,23.07
2023-03-24T12:02:49.461Z,28.45
2023-03-24T12:08:02.026Z,20.80
2023-03-24T12:13:22.175Z,22.60
2023-03-24T12:18:44.322Z,25.10
2023-03-24T12:23:53.783Z,23.13
2023-03-24T12:29:10.614Z,14.65
2023-03-24T12:34:30.505Z,16.75
2023-03-24T12:39:37.330Z,16.40
2023-03-24T12:45:06.861Z,22.17
2023-03-24T12:50:25.639Z,18.20
2023-03-24T12:55:34.528Z,21.15
2023-03-24T13:00:42.496Z,17.27
2023-03-24T13:05:50.157Z,20.40
2023-03-24T13:10:54.567Z,17.93
2023-03-24T13:16:00.346Z,21.52
2023-03-24T13:21:05.714Z,22.90
2023-03-24T13:26:17.515Z,27.15
2023-03-24T13:31:23.021Z,26.20
2023-03-24T13:36:44.145Z,22.15
2023-03-24T13:41:51.097Z,21.37
2023-03-24T13:47:22.266Z,24.00
2023-03-24T13:52:29.850Z,24.10
2023-03-24T13:57:32.912Z,25.52
2023-03-24T14:02:47.022Z,22.55
2023-03-24T14:07:50.883Z,21.27
2023-03-24T14:12:54.592Z,27.13
2023-03-24T14:18:15.717Z,20.65
2023-03-24T14:23:24.972Z,21.35
2023-03-24T14:28:29.911Z,26.23
2023-03-24T14:33:34.164Z,21.03
2023-03-24T14:38:38.126Z,17.70
2023-03-24T14:43:55.925Z,32.17
2023-03-24T14:49:04.653Z,25.53
2023-03-24T14:54:13.539Z,28.92
2023-03-24T14:59:27.053Z,21.13
2023-03-24T15:04:33.603Z,24.92
2023-03-24T15:09:38.457Z,26.57
2023-03-24T15:14:41.427Z,22.55
2023-03-24T15:19:46.804Z,19.80
2023-03-24T15:24:51.169Z,19.43
2023-03-24T15:29:58.897Z,14.95
2023-03-24T15:35:06.544Z,19.42
2023-03-24T15:40:37.695Z,22.10
2023-03-24T15:45:51.015Z,18.50
2023-03-24T15:50:59.822Z,20.80
2023-03-24T15:56:07.121Z,18.10
2023-03-24T16:01:14.377Z,21.15
2023-03-24T16:06:29.575Z,19.43
2023-03-24T16:11:32.472Z,14.65
2023-03-24T16:16:38.661Z,19.45
2023-03-24T16:21:43.327Z,21.55
2023-03-24T16:26:46.501Z,23.08
2023-03-24T16:31:50.502Z,15.90
2023-03-24T16:36:56.111Z,24.58
2023-03-24T16:41:59.069Z,23.00
2023-03-24T16:47:02.051Z,17.27
2023-03-24T16:52:10.651Z,22.15
2023-03-24T16:57:13.641Z,20.00
2023-03-24T17:02:16.626Z,21.70
2023-03-24T17:07:20.976Z,23.83
2023-03-24T17:12:23.928Z,15.38
2023-03-24T17:17:26.924Z,21.52
2023-03-24T17:22:31.154Z,19.20
2023-03-24T17:27:34.098Z,20.63
2023-03-24T17:32:36.934Z,17.83
2023-03-24T17:37:41.864Z,19.95
2023-03-24T17:42:46.722Z,22.27
2023-03-24T17:47:49.738Z,19.92
2023-03-24T17:52:54.065Z,19.38
2023-03-24T17:57:56.995Z,16.95
2023-03-24T18:02:59.907Z,14.55
2023-03-24T18:08:04.219Z,13.45
2023-03-24T18:13:07.971Z,12.98
2023-03-24T18:18:11.153Z,16.90
2023-03-24T18:23:16.097Z,22.05
2023-03-24T18:28:18.904Z,12.25
2023-03-24T18:33:22.738Z,12.65
2023-03-24T18:38:26.936Z,18.00
2023-03-24T18:43:31.009Z,23.83
2023-03-24T18:48:33.864Z,16.20
2023-03-24T18:53:38.491Z,22.90
2023-03-24T18:58:43.235Z,33.27
2023-03-24T19:03:46.242Z,22.08
2023-03-24T19:08:53.329Z,30.20
2023-03-24T19:13:57.058Z,25.13
2023-03-24T19:19:00.259Z,25.03
2023-03-24T19:24:04.651Z,26.02
2023-03-24T19:29:07.509Z,26.27
2023-03-24T19:34:10.514Z,29.50
2023-03-24T19:39:14.766Z,25.60
2023-03-24T19:44:17.877Z,25.85
2023-03-24T19:49:21.359Z,24.55
2023-03-24T19:54:25.582Z,22.88
2023-03-24T19:59:28.465Z,30.60
2023-03-24T20:04:31.353Z,29.52
2023-03-24T20:09:35.852Z,24.25
2023-03-24T20:14:38.805Z,29.38
2023-03-24T20:19:41.701Z,28.98
2023-03-24T20:24:48.115Z,23.27
2023-03-24T20:29:51.018Z,30.42
2023-03-24T20:34:54.364Z,27.23
2023-03-24T20:39:59.306Z,26.38
2023-03-24T20:45:02.534Z,25.90
2023-03-24T20:50:06.907Z,26.27
2023-03-24T20:55:12.428Z,30.07
2023-03-24T21:00:15.995Z,24.63
2023-03-24T21:05:18.807Z,30.10
2023-03-24T21:10:23.162Z,29.80
2023-03-24T21:15:26.203Z,21.93
2023-03-24T21:20:30.752Z,23.58
2023-03-24T21:25:35.023Z,35.43
2023-03-24T21:30:38.107Z,39.03
2023-03-24T21:35:41.408Z,36.20
2023-03-24T21:40:46.491Z,33.87
2023-03-24T21:45:54.502Z,33.53
2023-03-24T21:50:58.729Z,42.20
2023-03-24T21:56:05.363Z,29.60
2023-03-24T22:01:08.826Z,39.78
2023-03-24T22:06:11.677Z,32.97
2023-03-24T22:11:18.654Z,30.33
2023-03-24T22:16:21.647Z,23.90
2023-03-24T22:21:24.504Z,27.45
2023-03-24T22:26:28.753Z,33.38
2023-03-24T22:31:31.567Z,30.20
2023-03-24T22:36:34.435Z,30.50
2023-03-24T22:41:38.706Z,25.87
2023-03-24T22:46:41.755Z,35.15
2023-03-24T22:51:44.714Z,35.35
2023-03-24T22:56:49.115Z,30.65
2023-03-24T23:02:02.387Z,41.30
2023-03-24T23:07:12.000Z,26.85
2023-03-24T23:12:16.390Z,39.42
2023-03-24T23:17:19.577Z,34.30
2023-03-24T23:22:23.077Z,37.38
2023-03-24T23:27:27.406Z,41.47
2023-03-24T23:32:33.586Z,31.25
2023-03-24T23:37:38.953Z,35.73
2023-03-24T23:42:45.352Z,35.25
2023-03-24T23:47:50.735Z,39.63
2023-03-24T23:52:53.603Z,44.03
2023-03-24T23:57:57.812Z,39.40
